createdAt,value
2023-03-11T00:00:34.303Z,0.00
2023-03-11T00:01:33.297Z,0.00
2023-03-11T00:02:33.280Z,0.00
2023-03-11T00:03:33.288Z,0.00
2023-03-11T00:04:33.267Z,0.00
2023-03-11T00:05:33.289Z,0.00
2023-03-11T00:06:33.263Z,0.00
2023-03-11T00:07:33.222Z,0.00
2023-03-11T00:08:33.231Z,0.00
2023-03-11T00:09:33.203Z,0.00
2023-03-11T00:10:33.193Z,0.00
2023-03-11T00:11:33.200Z,0.00
2023-03-11T00:12:33.182Z,0.00
2023-03-11T00:13:33.197Z,0.00
2023-03-11T00:14:33.158Z,0.00
2023-03-11T00:15:33.180Z,0.00
2023-03-11T00:16:33.185Z,0.00
2023-03-11T00:17:33.141Z,0.00
2023-03-11T00:18:33.144Z,0.00
2023-03-11T00:19:33.110Z,0.00
2023-03-11T00:20:33.100Z,0.00
2023-03-11T00:21:33.085Z,0.00
2023-03-11T00:22:33.110Z,0.00
2023-03-11T00:23:33.079Z,0.00
2023-03-11T00:24:33.085Z,0.00
2023-03-11T00:25:33.047Z,0.00
2023-03-11T00:26:33.040Z,0.00
2023-03-11T00:27:33.066Z,0.00
2023-03-11T00:28:34.376Z,0.00
2023-03-11T00:29:34.021Z,0.00
2023-03-11T00:30:33.040Z,0.00
2023-03-11T00:31:33.003Z,0.00
2023-03-11T00:32:33.062Z,0.00
2023-03-11T00:33:32.991Z,0.00
2023-03-11T00:34:32.968Z,0.00
2023-03-11T00:35:33.008Z,0.00
2023-03-11T00:36:32.943Z,0.00
2023-03-11T00:37:32.936Z,0.00
2023-03-11T00:38:32.990Z,0.00
2023-03-11T00:39:32.921Z,0.00
2023-03-11T00:40:32.908Z,0.00
2023-03-11T00:41:32.894Z,0.00
2023-03-11T00:42:32.887Z,0.00
2023-03-11T00:43:32.893Z,0.00
2023-03-11T00:44:32.868Z,0.00
2023-03-11T00:45:32.850Z,0.00
2023-03-11T00:46:32.882Z,0.00
2023-03-11T00:47:32.827Z,0.00
2023-03-11T00:48:32.843Z,0.00
2023-03-11T00:49:32.809Z,0.00
2023-03-11T00:50:32.819Z,0.00
2023-03-11T00:51:34.262Z,0.00
2023-03-11T00:52:33.795Z,0.00
2023-03-11T00:53:32.780Z,0.00
2023-03-11T00:54:32.765Z,0.00
2023-03-11T00:55:32.789Z,0.00
2023-03-11T00:56:32.746Z,0.00
2023-03-11T00:57:32.734Z,0.00
2023-03-11T00:58:32.715Z,0.00
2023-03-11T00:59:32.708Z,0.00
2023-03-11T01:00:32.733Z,0.00
2023-03-11T01:01:32.752Z,0.00
2023-03-11T01:02:32.690Z,0.00
2023-03-11T01:03:32.694Z,0.00
2023-03-11T01:04:32.731Z,0.00
2023-03-11T01:05:32.652Z,0.00
2023-03-11T01:06:44.457Z,0.00
2023-03-11T01:07:34.641Z,0.00
2023-03-11T01:08:32.629Z,0.00
2023-03-11T01:09:32.604Z,0.00
2023-03-11T01:10:32.626Z,0.00
2023-03-11T01:11:32.600Z,0.00
2023-03-11T01:12:32.609Z,0.00
2023-03-11T01:13:32.594Z,0.00
2023-03-11T01:14:32.573Z,0.00
2023-03-11T01:15:32.629Z,0.00
2023-03-11T01:16:32.524Z,0.00
2023-03-11T01:17:32.534Z,0.00
2023-03-11T01:18:32.529Z,0.00
2023-03-11T01:19:32.518Z,0.00
2023-03-11T01:20:32.521Z,0.00
2023-03-11T01:21:32.497Z,0.00
2023-03-11T01:22:32.477Z,0.00
2023-03-11T01:23:32.498Z,0.00
2023-03-11T01:24:32.486Z,0.00
2023-03-11T01:25:32.446Z,0.00
2023-03-11T01:26:32.451Z,0.00
2023-03-11T01:27:32.469Z,0.00
2023-03-11T01:28:32.425Z,0.00
2023-03-11T01:29:32.419Z,0.00
2023-03-11T01:30:32.427Z,0.00
2023-03-11T01:31:32.393Z,0.00
2023-03-11T01:32:32.478Z,0.00
2023-03-11T01:34:04.279Z,0.00
2023-03-11T01:34:32.363Z,0.00
2023-03-11T01:35:32.425Z,0.00
2023-03-11T01:36:32.390Z,0.00
2023-03-11T01:37:32.335Z,0.00
2023-03-11T01:38:32.333Z,0.00
2023-03-11T01:39:32.324Z,0.00
2023-03-11T01:40:32.318Z,0.00
2023-03-11T01:41:32.337Z,0.00
2023-03-11T01:42:32.313Z,0.00
2023-03-11T01:43:32.283Z,0.00
2023-03-11T01:44:32.269Z,0.00
2023-03-11T01:45:32.253Z,0.00
2023-03-11T01:46:32.315Z,0.00
2023-03-11T01:47:32.227Z,0.00
2023-03-11T01:48:32.233Z,0.00
2023-03-11T01:49:32.242Z,0.00
2023-03-11T01:50:32.210Z,0.00
2023-03-11T01:51:32.192Z,0.00
2023-03-11T01:52:32.205Z,0.00
2023-03-11T01:53:32.203Z,0.00
2023-03-11T01:54:32.174Z,0.00
2023-03-11T01:55:32.161Z,0.00
2023-03-11T01:56:32.151Z,0.00
2023-03-11T01:57:32.139Z,0.00
2023-03-11T01:58:32.146Z,0.00
2023-03-11T01:59:32.131Z,0.00
2023-03-11T02:00:32.116Z,0.00
2023-03-11T02:01:32.146Z,0.00
2023-03-11T02:02:32.109Z,0.00
2023-03-11T02:03:32.110Z,0.00
2023-03-11T02:04:32.087Z,0.00
2023-03-11T02:05:32.074Z,0.00
2023-03-11T02:06:32.043Z,0.00
2023-03-11T02:07:32.040Z,0.00
2023-03-11T02:08:32.031Z,0.00
2023-03-11T02:09:32.051Z,0.00
2023-03-11T02:10:32.006Z,0.00
2023-03-11T02:11:31.998Z,0.00
2023-03-11T02:12:32.002Z,0.00
2023-03-11T02:13:31.987Z,0.00
2023-03-11T02:14:32.006Z,0.00
2023-03-11T02:15:31.964Z,0.00
2023-03-11T02:16:32.010Z,0.00
2023-03-11T02:17:31.938Z,0.00
2023-03-11T02:18:31.949Z,0.00
2023-03-11T02:19:31.927Z,0.00
2023-03-11T02:20:31.920Z,0.00
2023-03-11T02:21:31.933Z,0.00
2023-03-11T02:22:31.900Z,0.00
2023-03-11T02:23:31.900Z,0.00
2023-03-11T02:24:31.876Z,0.00
2023-03-11T02:25:31.869Z,0.00
2023-03-11T02:26:31.865Z,0.00
2023-03-11T02:27:31.863Z,0.00
2023-03-11T02:28:31.855Z,0.00
2023-03-11T02:29:31.835Z,0.00
2023-03-11T02:30:31.844Z,0.00
2023-03-11T02:31:31.891Z,0.00
2023-03-11T02:32:31.849Z,0.00
2023-03-11T02:33:31.796Z,0.00
2023-03-11T02:34:31.804Z,0.00
2023-03-11T02:35:31.809Z,0.00
2023-03-11T02:36:31.780Z,0.00
2023-03-11T02:37:31.761Z,0.00
2023-03-11T02:38:31.752Z,0.00
2023-03-11T02:39:31.781Z,0.00
2023-03-11T02:40:31.739Z,0.00
2023-03-11T02:41:31.720Z,0.00
2023-03-11T02:42:31.702Z,0.00
2023-03-11T02:43:31.701Z,0.00
2023-03-11T02:44:31.685Z,0.00
2023-03-11T02:45:31.695Z,0.00
2023-03-11T02:46:31.756Z,0.00
2023-03-11T02:47:31.657Z,0.00
2023-03-11T02:48:31.651Z,0.00
2023-03-11T02:49:31.672Z,0.00
2023-03-11T02:50:31.639Z,0.00
2023-03-11T02:51:31.604Z,0.00
2023-03-11T02:52:31.594Z,0.00
2023-03-11T02:53:31.621Z,0.00
2023-03-11T02:54:31.580Z,0.00
2023-03-11T02:55:31.586Z,0.00
2023-03-11T02:56:31.547Z,0.00
2023-03-11T02:57:31.561Z,0.00
2023-03-11T02:58:31.562Z,0.00
2023-03-11T02:59:31.548Z,0.00
2023-03-11T03:00:31.589Z,0.00
2023-03-11T03:01:31.504Z,0.00
2023-03-11T03:02:31.502Z,0.00
2023-03-11T03:03:31.532Z,0.00
2023-03-11T03:04:31.576Z,0.00
2023-03-11T03:05:31.472Z,0.00
2023-03-11T03:06:31.466Z,0.00
2023-03-11T03:07:31.471Z,0.00
2023-03-11T03:08:31.460Z,0.00
2023-03-11T03:09:31.432Z,0.00
2023-03-11T03:10:31.420Z,0.00
2023-03-11T03:11:31.436Z,0.00
2023-03-11T03:12:31.399Z,0.00
2023-03-11T03:13:31.380Z,0.00
2023-03-11T03:14:32.381Z,0.00
2023-03-11T03:15:31.374Z,0.00
2023-03-11T03:16:31.424Z,0.00
2023-03-11T03:17:31.385Z,0.00
2023-03-11T03:18:31.346Z,0.00
2023-03-11T03:19:31.359Z,0.00
2023-03-11T03:20:31.319Z,0.00
2023-03-11T03:21:31.358Z,0.00
2023-03-11T03:22:31.300Z,0.00
2023-03-11T03:23:31.333Z,0.00
2023-03-11T03:24:31.297Z,0.00
2023-03-11T03:25:31.296Z,0.00
2023-03-11T03:26:31.289Z,0.00
2023-03-11T03:27:31.257Z,0.00
2023-03-11T03:28:31.258Z,0.00
2023-03-11T03:29:31.244Z,0.00
2023-03-11T03:30:31.236Z,0.00
2023-03-11T03:31:31.324Z,0.00
2023-03-11T03:32:31.295Z,0.00
2023-03-11T03:33:31.233Z,0.00
2023-03-11T03:34:31.187Z,0.00
2023-03-11T03:35:31.247Z,0.00
2023-03-11T03:36:31.182Z,0.00
2023-03-11T03:37:31.162Z,0.00
2023-03-11T03:38:31.142Z,0.00
2023-03-11T03:39:31.134Z,0.00
2023-03-11T03:40:31.123Z,0.00
2023-03-11T03:41:31.112Z,0.00
2023-03-11T03:42:31.118Z,0.00
2023-03-11T03:43:31.095Z,0.00
2023-03-11T03:44:31.093Z,0.00
2023-03-11T03:45:31.071Z,0.00
2023-03-11T03:46:31.060Z,0.00
2023-03-11T03:47:31.073Z,0.00
2023-03-11T03:48:31.059Z,0.00
2023-03-11T03:49:31.055Z,0.00
2023-03-11T03:50:31.024Z,0.00
2023-03-11T03:51:31.012Z,0.00
2023-03-11T03:52:31.008Z,0.00
2023-03-11T03:53:30.999Z,0.00
2023-03-11T03:54:31.012Z,0.00
2023-03-11T03:55:30.975Z,0.00
2023-03-11T03:56:30.967Z,0.00
2023-03-11T03:57:30.959Z,0.00
2023-03-11T03:58:30.933Z,0.00
2023-03-11T03:59:30.943Z,0.00
2023-03-11T04:00:30.961Z,0.00
2023-03-11T04:01:30.912Z,0.00
2023-03-11T04:02:30.997Z,0.00
2023-03-11T04:03:30.989Z,0.00
2023-03-11T04:04:30.902Z,0.00
2023-03-11T04:05:30.912Z,0.00
2023-03-11T04:06:30.883Z,0.00
2023-03-11T04:07:30.888Z,0.00
2023-03-11T04:08:30.864Z,0.00
2023-03-11T04:09:30.830Z,0.00
2023-03-11T04:10:30.837Z,0.00
2023-03-11T04:11:30.820Z,0.00
2023-03-11T04:12:30.857Z,0.00
2023-03-11T04:13:30.800Z,0.00
2023-03-11T04:14:30.811Z,0.00
2023-03-11T04:15:30.785Z,0.00
2023-03-11T04:16:30.858Z,0.00
2023-03-11T04:17:30.800Z,0.00
2023-03-11T04:18:30.776Z,0.00
2023-03-11T04:19:31.754Z,0.00
2023-03-11T04:20:30.736Z,0.00
2023-03-11T04:21:31.725Z,0.00
2023-03-11T04:22:30.722Z,0.00
2023-03-11T04:23:30.726Z,0.00
2023-03-11T04:24:30.711Z,0.00
2023-03-11T04:25:30.687Z,0.00
2023-03-11T04:26:30.712Z,0.00
2023-03-11T04:27:30.659Z,0.00
2023-03-11T04:28:30.664Z,0.00
2023-03-11T04:29:30.647Z,0.00
2023-03-11T04:30:30.624Z,0.00
2023-03-11T04:31:30.680Z,0.00
2023-03-11T04:32:30.730Z,0.00
2023-03-11T04:33:30.612Z,0.00
2023-03-11T04:34:30.595Z,0.00
2023-03-11T04:35:30.600Z,0.00
2023-03-11T04:36:30.595Z,0.00
2023-03-11T04:37:30.608Z,0.00
2023-03-11T04:38:30.556Z,0.00
2023-03-11T04:39:30.553Z,0.00
2023-03-11T04:40:30.554Z,0.00
2023-03-11T04:41:30.528Z,0.00
2023-03-11T04:42:30.542Z,0.00
2023-03-11T04:43:30.512Z,0.00
2023-03-11T04:44:30.497Z,0.00
2023-03-11T04:45:30.501Z,0.00
2023-03-11T04:46:30.542Z,0.00
2023-03-11T04:47:30.486Z,0.00
2023-03-11T04:48:30.463Z,0.00
2023-03-11T04:49:30.440Z,0.00
2023-03-11T04:50:30.447Z,0.00
2023-03-11T04:51:30.461Z,0.00
2023-03-11T04:52:30.421Z,0.00
2023-03-11T04:53:30.403Z,0.00
2023-03-11T04:54:30.395Z,0.00
2023-03-11T04:55:30.385Z,0.00
2023-03-11T04:56:30.391Z,0.00
2023-03-11T04:57:30.394Z,0.00
2023-03-11T04:58:31.352Z,0.00
2023-03-11T04:59:30.344Z,0.00
2023-03-11T05:00:30.330Z,0.00
2023-03-11T05:01:30.393Z,0.00
2023-03-11T05:02:30.333Z,0.00
2023-03-11T05:03:30.418Z,0.00
2023-03-11T05:04:30.313Z,0.00
2023-03-11T05:05:30.284Z,0.00
2023-03-11T05:06:30.288Z,0.00
2023-03-11T05:07:30.296Z,0.00
2023-03-11T05:08:30.254Z,0.00
2023-03-11T05:09:30.252Z,0.00
2023-03-11T05:10:31.885Z,0.00
2023-03-11T05:11:31.248Z,0.00
2023-03-11T05:12:30.218Z,0.00
2023-03-11T05:13:30.213Z,0.00
2023-03-11T05:14:30.229Z,0.00
2023-03-11T05:15:30.190Z,0.00
2023-03-11T05:16:30.195Z,0.00
2023-03-11T05:17:30.172Z,0.00
2023-03-11T05:18:30.166Z,0.00
2023-03-11T05:19:30.166Z,0.00
2023-03-11T05:20:30.154Z,0.00
2023-03-11T05:21:30.140Z,0.00
2023-03-11T05:22:31.148Z,0.00
2023-03-11T05:23:30.119Z,0.00
2023-03-11T05:24:30.099Z,0.00
2023-03-11T05:25:30.092Z,0.00
2023-03-11T05:26:30.098Z,0.00
2023-03-11T05:27:30.084Z,0.00
2023-03-11T05:28:30.090Z,0.00
2023-03-11T05:29:30.069Z,0.00
2023-03-11T05:30:30.041Z,0.00
2023-03-11T05:31:30.091Z,0.00
2023-03-11T05:32:30.081Z,0.00
2023-03-11T05:33:30.036Z,0.00
2023-03-11T05:34:30.016Z,0.00
2023-03-11T05:35:30.028Z,0.00
2023-03-11T05:36:29.992Z,0.00
2023-03-11T05:37:29.979Z,0.00
2023-03-11T05:38:29.982Z,5.62
2023-03-11T05:39:29.968Z,5.62
2023-03-11T05:40:29.944Z,5.62
2023-03-11T05:41:29.956Z,5.62
2023-03-11T05:42:29.981Z,5.62
2023-03-11T05:43:29.920Z,11.25
2023-03-11T05:44:29.911Z,11.25
2023-03-11T05:45:30.891Z,11.25
2023-03-11T05:46:29.934Z,11.25
2023-03-11T05:47:29.938Z,11.25
2023-03-11T05:48:29.864Z,11.25
2023-03-11T05:49:29.864Z,16.88
2023-03-11T05:50:29.856Z,16.88
2023-03-11T05:51:29.845Z,16.88
2023-03-11T05:52:29.842Z,22.50
2023-03-11T05:53:29.864Z,22.50
2023-03-11T05:54:29.814Z,22.50
2023-03-11T05:55:29.807Z,22.50
2023-03-11T05:56:29.807Z,22.50
2023-03-11T05:57:29.773Z,22.50
2023-03-11T05:58:30.804Z,22.50
2023-03-11T05:59:29.769Z,22.50
2023-03-11T06:00:29.781Z,22.50
2023-03-11T06:01:29.753Z,28.12
2023-03-11T06:02:29.734Z,28.12
2023-03-11T06:03:29.739Z,28.12
2023-03-11T06:04:29.817Z,28.12
2023-03-11T06:05:29.812Z,28.12
2023-03-11T06:06:29.698Z,28.12
2023-03-11T06:07:29.684Z,33.75
2023-03-11T06:08:29.671Z,33.75
2023-03-11T06:09:29.690Z,39.38
2023-03-11T06:10:29.657Z,39.38
2023-03-11T06:11:29.662Z,45.00
2023-03-11T06:12:29.694Z,45.00
2023-03-11T06:13:29.623Z,45.00
2023-03-11T06:14:29.642Z,50.62
2023-03-11T06:15:29.615Z,50.62
2023-03-11T06:16:29.648Z,50.62
2023-03-11T06:17:30.567Z,56.25
2023-03-11T06:18:29.567Z,56.25
2023-03-11T06:19:29.572Z,61.88
2023-03-11T06:20:29.580Z,61.88
2023-03-11T06:21:29.552Z,61.88
2023-03-11T06:22:29.553Z,61.88
2023-03-11T06:23:29.527Z,61.88
2023-03-11T06:24:29.528Z,61.88
2023-03-11T06:25:29.512Z,67.50
2023-03-11T06:26:29.503Z,67.50
2023-03-11T06:27:29.491Z,67.50
2023-03-11T06:28:29.480Z,73.12
2023-03-11T06:29:29.493Z,73.12
2023-03-11T06:30:29.459Z,78.75
2023-03-11T06:31:29.487Z,84.38
2023-03-11T06:32:29.480Z,90.00
2023-03-11T06:33:29.460Z,90.00
2023-03-11T06:34:29.420Z,90.00
2023-03-11T06:35:29.449Z,90.00
2023-03-11T06:36:29.417Z,90.00
2023-03-11T06:37:29.389Z,90.00
2023-03-11T06:38:29.387Z,90.00
2023-03-11T06:39:29.398Z,90.00
2023-03-11T06:40:29.360Z,90.00
2023-03-11T06:41:29.346Z,84.38
2023-03-11T06:42:29.341Z,84.38
2023-03-11T06:43:29.347Z,84.38
2023-03-11T06:44:29.356Z,84.38
2023-03-11T06:45:29.348Z,84.38
2023-03-11T06:46:29.314Z,90.00
2023-03-11T06:47:29.298Z,95.62
2023-03-11T06:48:29.290Z,95.62
2023-03-11T06:49:29.296Z,95.62
2023-03-11T06:50:29.264Z,95.62
2023-03-11T06:51:29.264Z,95.62
2023-03-11T06:52:29.261Z,101.25
2023-03-11T06:53:29.246Z,101.25
2023-03-11T06:54:29.254Z,101.25
2023-03-11T06:55:29.213Z,106.88
2023-03-11T06:56:29.201Z,118.12
2023-03-11T06:57:29.213Z,118.12
2023-03-11T06:58:29.186Z,112.50
2023-03-11T06:59:29.206Z,101.25
2023-03-11T07:00:29.167Z,112.50
2023-03-11T07:01:29.221Z,118.12
2023-03-11T07:02:29.144Z,118.12
2023-03-11T07:03:29.136Z,112.50
2023-03-11T07:04:29.126Z,118.12
2023-03-11T07:05:30.126Z,135.00
2023-03-11T07:06:29.144Z,135.00
2023-03-11T07:07:29.115Z,129.38
2023-03-11T07:08:29.098Z,123.75
2023-03-11T07:09:29.088Z,123.75
2023-03-11T07:10:29.079Z,123.75
2023-03-11T07:11:29.094Z,123.75
2023-03-11T07:12:29.064Z,123.75
2023-03-11T07:13:29.041Z,129.38
2023-03-11T07:14:29.037Z,140.62
2023-03-11T07:15:29.047Z,163.12
2023-03-11T07:16:29.046Z,180.00
2023-03-11T07:17:29.045Z,174.38
2023-03-11T07:18:28.998Z,163.12
2023-03-11T07:19:28.997Z,140.62
2023-03-11T07:20:28.998Z,112.50
2023-03-11T07:21:28.962Z,106.88
2023-03-11T07:22:28.954Z,112.50
2023-03-11T07:23:28.950Z,123.75
2023-03-11T07:24:28.947Z,151.88
2023-03-11T07:25:28.932Z,174.38
2023-03-11T07:26:28.943Z,196.88
2023-03-11T07:27:28.934Z,213.75
2023-03-11T07:28:28.897Z,225.00
2023-03-11T07:29:28.893Z,219.38
2023-03-11T07:30:28.889Z,208.12
2023-03-11T07:31:28.920Z,196.88
2023-03-11T07:32:28.943Z,191.25
2023-03-11T07:33:28.854Z,185.62
2023-03-11T07:35:00.740Z,185.62
2023-03-11T07:35:28.825Z,180.00
2023-03-11T07:36:28.822Z,191.25
2023-03-11T07:37:28.827Z,202.50
2023-03-11T07:38:28.801Z,208.12
2023-03-11T07:39:28.792Z,191.25
2023-03-11T07:40:28.800Z,196.88
2023-03-11T07:41:28.758Z,219.38
2023-03-11T07:42:28.772Z,247.50
2023-03-11T07:43:28.753Z,270.00
2023-03-11T07:44:28.750Z,292.50
2023-03-11T07:45:28.770Z,315.00
2023-03-11T07:46:28.915Z,337.50
2023-03-11T07:47:28.710Z,360.00
2023-03-11T07:48:28.706Z,376.88
2023-03-11T07:49:28.685Z,382.50
2023-03-11T07:50:28.696Z,410.62
2023-03-11T07:51:28.684Z,438.75
2023-03-11T07:52:28.668Z,461.25
2023-03-11T07:53:28.656Z,466.88
2023-03-11T07:54:28.660Z,495.00
2023-03-11T07:55:28.665Z,511.88
2023-03-11T07:56:28.630Z,511.88
2023-03-11T07:57:28.619Z,495.00
2023-03-11T07:58:28.611Z,495.00
2023-03-11T07:59:28.603Z,489.38
2023-03-11T08:00:28.657Z,500.62
2023-03-11T08:01:28.584Z,500.62
2023-03-11T08:02:28.647Z,517.50
2023-03-11T08:03:28.611Z,523.12
2023-03-11T08:04:28.575Z,517.50
2023-03-11T08:05:28.540Z,523.12
2023-03-11T08:06:29.537Z,540.00
2023-03-11T08:07:28.541Z,568.12
2023-03-11T08:08:28.553Z,573.75
2023-03-11T08:09:28.506Z,556.88
2023-03-11T08:10:28.503Z,534.38
2023-03-11T08:11:28.494Z,489.38
2023-03-11T08:12:28.479Z,523.12
2023-03-11T08:13:28.484Z,455.62
2023-03-11T08:14:28.493Z,438.75
2023-03-11T08:15:28.481Z,433.12
2023-03-11T08:16:28.447Z,663.75
2023-03-11T08:17:28.432Z,1895.62
2023-03-11T08:18:28.412Z,1839.38
2023-03-11T08:19:28.421Z,1845.00
2023-03-11T08:20:28.495Z,1710.00
2023-03-11T08:21:28.383Z,1732.50
2023-03-11T08:22:28.385Z,1878.75
2023-03-11T08:23:28.359Z,860.62
2023-03-11T08:24:28.360Z,691.88
2023-03-11T08:25:28.392Z,686.25
2023-03-11T08:26:28.363Z,883.12
2023-03-11T08:27:28.339Z,742.50
2023-03-11T08:28:28.317Z,1636.88
2023-03-11T08:29:28.320Z,1395.00
2023-03-11T08:30:28.403Z,1001.25
2023-03-11T08:31:28.370Z,1569.38
2023-03-11T08:32:28.298Z,1631.25
2023-03-11T08:33:28.264Z,753.75
2023-03-11T08:34:28.252Z,950.62
2023-03-11T08:35:28.291Z,1271.25
2023-03-11T08:36:28.247Z,1563.75
2023-03-11T08:37:28.249Z,1513.12
2023-03-11T08:38:28.245Z,832.50
2023-03-11T08:39:28.219Z,1642.50
2023-03-11T08:40:28.215Z,1726.88
2023-03-11T08:41:28.214Z,585.00
2023-03-11T08:42:28.182Z,466.88
2023-03-11T08:43:28.187Z,450.00
2023-03-11T08:44:28.172Z,433.12
2023-03-11T08:45:28.180Z,461.25
2023-03-11T08:46:28.264Z,483.75
2023-03-11T08:47:28.138Z,427.50
2023-03-11T08:48:28.125Z,427.50
2023-03-11T08:49:28.111Z,483.75
2023-03-11T08:50:28.125Z,556.88
2023-03-11T08:51:28.104Z,635.62
2023-03-11T08:52:28.087Z,652.50
2023-03-11T08:53:28.086Z,624.38
2023-03-11T08:54:28.088Z,540.00
2023-03-11T08:55:28.073Z,489.38
2023-03-11T08:56:28.038Z,489.38
2023-03-11T08:57:28.038Z,528.75
2023-03-11T08:58:28.040Z,444.38
2023-03-11T08:59:28.034Z,438.75
2023-03-11T09:00:28.014Z,472.50
2023-03-11T09:01:28.020Z,495.00
2023-03-11T09:02:28.053Z,540.00
2023-03-11T09:03:27.975Z,2480.62
2023-03-11T09:04:27.976Z,1406.25
2023-03-11T09:05:27.972Z,1631.25
2023-03-11T09:06:27.940Z,579.38
2023-03-11T09:07:28.962Z,545.62
2023-03-11T09:08:27.928Z,1530.00
2023-03-11T09:09:27.929Z,1260.00
2023-03-11T09:10:27.910Z,1141.88
2023-03-11T09:11:27.909Z,1575.00
2023-03-11T09:12:27.878Z,1513.12
2023-03-11T09:13:27.869Z,1501.88
2023-03-11T09:14:27.876Z,1530.00
2023-03-11T09:15:27.874Z,1406.25
2023-03-11T09:16:27.942Z,1411.88
2023-03-11T09:17:27.827Z,1299.38
2023-03-11T09:18:27.819Z,787.50
2023-03-11T09:19:27.845Z,759.38
2023-03-11T09:20:27.811Z,759.38
2023-03-11T09:21:27.790Z,731.25
2023-03-11T09:22:27.781Z,686.25
2023-03-11T09:23:27.788Z,652.50
2023-03-11T09:24:27.777Z,635.62
2023-03-11T09:25:27.780Z,613.12
2023-03-11T09:26:27.742Z,596.25
2023-03-11T09:27:27.738Z,568.12
2023-03-11T09:28:27.749Z,545.62
2023-03-11T09:29:27.708Z,523.12
2023-03-11T09:30:27.739Z,489.38
2023-03-11T09:31:27.769Z,466.88
2023-03-11T09:32:27.736Z,444.38
2023-03-11T09:33:27.689Z,427.50
2023-03-11T09:34:27.659Z,427.50
2023-03-11T09:35:27.730Z,433.12
2023-03-11T09:36:27.642Z,438.75
2023-03-11T09:37:27.665Z,444.38
2023-03-11T09:38:27.647Z,455.62
2023-03-11T09:39:27.639Z,466.88
2023-03-11T09:40:27.611Z,489.38
2023-03-11T09:41:27.646Z,511.88
2023-03-11T09:42:27.598Z,540.00
2023-03-11T09:43:27.572Z,568.12
2023-03-11T09:44:27.590Z,585.00
2023-03-11T09:45:27.580Z,613.12
2023-03-11T09:46:27.607Z,646.88
2023-03-11T09:47:27.556Z,697.50
2023-03-11T09:48:27.523Z,753.75
2023-03-11T09:49:27.538Z,781.88
2023-03-11T09:50:27.530Z,787.50
2023-03-11T09:51:27.538Z,1164.38
2023-03-11T09:52:27.521Z,1164.38
2023-03-11T09:53:27.488Z,1046.25
2023-03-11T09:54:27.464Z,950.62
2023-03-11T09:55:27.470Z,855.00
2023-03-11T09:56:27.451Z,770.62
2023-03-11T09:57:27.444Z,703.12
2023-03-11T09:58:27.436Z,646.88
2023-03-11T09:59:27.414Z,607.50
2023-03-11T10:00:27.395Z,579.38
2023-03-11T10:01:27.389Z,540.00
2023-03-11T10:02:27.502Z,506.25
2023-03-11T10:03:27.364Z,500.62
2023-03-11T10:04:27.374Z,478.12
2023-03-11T10:05:27.361Z,455.62
2023-03-11T10:06:27.360Z,427.50
2023-03-11T10:07:27.355Z,405.00
2023-03-11T10:08:27.317Z,388.12
2023-03-11T10:09:27.308Z,393.75
2023-03-11T10:10:27.302Z,416.25
2023-03-11T10:11:27.283Z,444.38
2023-03-11T10:12:27.310Z,472.50
2023-03-11T10:13:27.280Z,495.00
2023-03-11T10:14:27.275Z,517.50
2023-03-11T10:15:27.240Z,534.38
2023-03-11T10:16:27.267Z,545.62
2023-03-11T10:17:27.247Z,556.88
2023-03-11T10:18:27.215Z,568.12
2023-03-11T10:19:27.222Z,573.75
2023-03-11T10:20:27.185Z,579.38
2023-03-11T10:21:27.177Z,579.38
2023-03-11T10:22:27.172Z,568.12
2023-03-11T10:23:27.182Z,568.12
2023-03-11T10:24:27.166Z,562.50
2023-03-11T10:25:27.186Z,551.25
2023-03-11T10:26:27.126Z,545.62
2023-03-11T10:27:27.105Z,540.00
2023-03-11T10:28:27.124Z,534.38
2023-03-11T10:29:27.097Z,523.12
2023-03-11T10:30:27.102Z,517.50
2023-03-11T10:31:27.128Z,517.50
2023-03-11T10:32:27.084Z,523.12
2023-03-11T10:33:27.107Z,528.75
2023-03-11T10:34:27.050Z,534.38
2023-03-11T10:35:27.039Z,545.62
2023-03-11T10:36:27.096Z,545.62
2023-03-11T10:37:33.191Z,540.00
2023-03-11T10:38:29.027Z,528.75
2023-03-11T10:39:27.020Z,523.12
2023-03-11T10:40:27.001Z,517.50
2023-03-11T10:41:26.992Z,511.88
2023-03-11T10:42:27.010Z,523.12
2023-03-11T10:43:26.959Z,528.75
2023-03-11T10:44:26.977Z,534.38
2023-03-11T10:45:26.985Z,528.75
2023-03-11T10:46:26.930Z,534.38
2023-03-11T10:47:26.962Z,551.25
2023-03-11T10:48:26.917Z,568.12
2023-03-11T10:49:26.898Z,579.38
2023-03-11T10:50:26.905Z,590.62
2023-03-11T10:51:26.965Z,607.50
2023-03-11T10:52:26.884Z,624.38
2023-03-11T10:53:26.855Z,646.88
2023-03-11T10:54:27.869Z,697.50
2023-03-11T10:55:26.840Z,652.50
2023-03-11T10:56:26.861Z,630.00
2023-03-11T10:57:26.831Z,607.50
2023-03-11T10:58:26.836Z,590.62
2023-03-11T10:59:26.820Z,579.38
2023-03-11T11:00:26.808Z,573.75
2023-03-11T11:01:26.901Z,568.12
2023-03-11T11:02:26.812Z,556.88
2023-03-11T11:03:26.778Z,556.88
2023-03-11T11:04:26.799Z,556.88
2023-03-11T11:05:26.750Z,556.88
2023-03-11T11:06:26.776Z,551.25
2023-03-11T11:07:26.762Z,545.62
2023-03-11T11:08:26.739Z,540.00
2023-03-11T11:09:27.134Z,534.38
2023-03-11T11:10:27.716Z,528.75
2023-03-11T11:11:26.696Z,528.75
2023-03-11T11:12:26.674Z,523.12
2023-03-11T11:13:26.679Z,517.50
2023-03-11T11:14:26.668Z,517.50
2023-03-11T11:15:26.690Z,523.12
2023-03-11T11:16:26.669Z,556.88
2023-03-11T11:17:26.641Z,590.62
2023-03-11T11:18:26.631Z,596.25
2023-03-11T11:19:26.614Z,607.50
2023-03-11T11:20:26.681Z,618.75
2023-03-11T11:21:26.594Z,635.62
2023-03-11T11:22:26.628Z,652.50
2023-03-11T11:23:26.568Z,691.88
2023-03-11T11:24:26.581Z,675.00
2023-03-11T11:25:26.589Z,663.75
2023-03-11T11:26:26.552Z,646.88
2023-03-11T11:27:26.526Z,579.38
2023-03-11T11:28:26.531Z,545.62
2023-03-11T11:29:26.551Z,534.38
2023-03-11T11:30:26.530Z,523.12
2023-03-11T11:31:26.504Z,517.50
2023-03-11T11:32:26.505Z,506.25
2023-03-11T11:33:26.480Z,495.00
2023-03-11T11:34:26.463Z,483.75
2023-03-11T11:35:26.494Z,478.12
2023-03-11T11:36:26.426Z,466.88
2023-03-11T11:37:26.421Z,455.62
2023-03-11T11:38:26.429Z,455.62
2023-03-11T11:39:26.399Z,455.62
2023-03-11T11:40:26.412Z,455.62
2023-03-11T11:41:26.388Z,461.25
2023-03-11T11:42:26.374Z,455.62
2023-03-11T11:43:26.383Z,455.62
2023-03-11T11:44:26.349Z,461.25
2023-03-11T11:45:26.368Z,461.25
2023-03-11T11:46:26.424Z,461.25
2023-03-11T11:47:26.321Z,455.62
2023-03-11T11:48:26.308Z,450.00
2023-03-11T11:49:26.324Z,444.38
2023-03-11T11:50:26.321Z,444.38
2023-03-11T11:51:26.324Z,438.75
2023-03-11T11:52:26.284Z,438.75
2023-03-11T11:53:26.260Z,438.75
2023-03-11T11:54:26.296Z,444.38
2023-03-11T11:55:26.256Z,450.00
2023-03-11T11:56:26.246Z,461.25
2023-03-11T11:57:26.257Z,450.00
2023-03-11T11:58:26.221Z,450.00
2023-03-11T11:59:26.251Z,450.00
2023-03-11T12:00:26.205Z,444.38
2023-03-11T12:01:26.201Z,438.75
2023-03-11T12:02:26.254Z,438.75
2023-03-11T12:03:26.195Z,438.75
2023-03-11T12:04:26.169Z,450.00
2023-03-11T12:05:26.200Z,461.25
2023-03-11T12:06:26.163Z,466.88
2023-03-11T12:07:26.121Z,472.50
2023-03-11T12:08:26.168Z,472.50
2023-03-11T12:09:26.146Z,472.50
2023-03-11T12:10:26.148Z,495.00
2023-03-11T12:11:26.106Z,444.38
2023-03-11T12:12:26.090Z,399.38
2023-03-11T12:13:27.105Z,376.88
2023-03-11T12:14:26.100Z,360.00
2023-03-11T12:15:26.053Z,343.12
2023-03-11T12:16:26.091Z,326.25
2023-03-11T12:17:26.045Z,320.62
2023-03-11T12:18:26.030Z,309.38
2023-03-11T12:19:26.017Z,298.12
2023-03-11T12:20:26.011Z,286.88
2023-03-11T12:21:26.032Z,286.88
2023-03-11T12:22:25.977Z,292.50
2023-03-11T12:23:26.002Z,298.12
2023-03-11T12:24:26.025Z,303.75
2023-03-11T12:25:26.018Z,309.38
2023-03-11T12:26:25.950Z,320.62
2023-03-11T12:27:25.958Z,326.25
2023-03-11T12:28:25.931Z,326.25
2023-03-11T12:29:25.960Z,337.50
2023-03-11T12:30:25.916Z,360.00
2023-03-11T12:31:27.035Z,382.50
2023-03-11T12:32:25.961Z,382.50
2023-03-11T12:33:25.894Z,388.12
2023-03-11T12:34:25.887Z,388.12
2023-03-11T12:35:25.867Z,388.12
2023-03-11T12:36:25.854Z,388.12
2023-03-11T12:37:25.862Z,388.12
2023-03-11T12:38:25.850Z,388.12
2023-03-11T12:39:25.822Z,388.12
2023-03-11T12:40:25.820Z,388.12
2023-03-11T12:41:25.811Z,382.50
2023-03-11T12:42:25.812Z,376.88
2023-03-11T12:43:25.768Z,371.25
2023-03-11T12:44:25.776Z,365.62
2023-03-11T12:45:25.777Z,365.62
2023-03-11T12:46:25.846Z,365.62
2023-03-11T12:47:25.769Z,376.88
2023-03-11T12:48:25.722Z,393.75
2023-03-11T12:49:25.720Z,399.38
2023-03-11T12:50:25.713Z,399.38
2023-03-11T12:51:25.727Z,399.38